Time;durP1;ratioP1;P1;durP2;ratioP2;P2;SDS_P1;SDS_P2;PMS_P1;PMS_P2;Temp;Humidity;BMP_temperature;BMP_pressure;BME280_temperature;BME280_humidity;BME280_pressure;Samples;Min_cycle;Max_cycle;Signal;HPM_P1;HPM_P2
2024/01/22 00:01:45;;;;;;;0.50;0.50;;;;;;;3.89;100.00;99471.94;5017683;28;20052;-59
2024/01/22 00:04:13;;;;;;;0.50;0.50;;;;;;;3.93;100.00;99469.75;5040690;28;20044;-59
2024/01/22 00:06:40;;;;;;;0.40;0.40;;;;;;;3.93;100.00;99465.25;5040699;28;20095;-59
2024/01/22 00:09:08;;;;;;;0.50;0.50;;;;;;;3.98;100.00;99462.84;5042329;28;20041;-59
2024/01/22 00:11:35;;;;;;;0.40;0.40;;;;;;;3.93;100.00;99461.78;5022796;28;20055;-59
2024/01/22 00:14:03;;;;;;;0.50;0.50;;;;;;;4.21;100.00;99451.97;5041107;28;20068;-59
2024/01/22 00:16:30;;;;;;;0.50;0.50;;;;;;;4.14;100.00;99448.44;5040745;28;20037;-59
2024/01/22 00:18:57;;;;;;;0.50;0.50;;;;;;;4.26;100.00;99443.41;5038895;28;20076;-59
2024/01/22 00:21:26;;;;;;;0.40;0.40;;;;;;;4.10;100.00;99437.41;5041450;28;20051;-59
2024/01/22 00:23:54;;;;;;;0.45;0.45;;;;;;;4.19;100.00;99440.72;5041219;28;20053;-59
2024/01/22 00:26:23;;;;;;;0.40;0.40;;;;;;;4.14;100.00;99426.41;5041185;28;20040;-59
2024/01/22 00:28:52;;;;;;;0.57;0.57;;;;;;;4.28;100.00;99422.81;5041751;28;20109;-59
2024/01/22 00:31:22;;;;;;;0.40;0.40;;;;;;;4.22;100.00;99424.44;5039022;28;20048;-59
2024/01/22 00:33:52;;;;;;;0.50;0.50;;;;;;;4.20;100.00;99428.31;5035864;28;20048;-59
2024/01/22 00:36:22;;;;;;;0.50;0.50;;;;;;;4.18;100.00;99430.31;5040566;28;20161;-59
2024/01/22 00:38:51;;;;;;;0.50;0.50;;;;;;;4.28;100.00;99422.81;5045663;28;20037;-59
2024/01/22 00:41:18;;;;;;;0.40;0.40;;;;;;;4.25;100.00;99423.22;5038503;28;20150;-59
2024/01/22 00:43:45;;;;;;;0.45;0.45;;;;;;;4.31;100.00;99433.03;5041142;28;20048;-59
2024/01/22 00:46:12;;;;;;;0.45;0.45;;;;;;;4.33;100.00;99431.81;5042254;28;20144;-60
2024/01/22 00:48:39;;;;;;;0.50;0.50;;;;;;;4.30;100.00;99420.81;5040622;28;20036;-59
2024/01/22 00:51:06;;;;;;;0.60;0.60;;;;;;;4.33;100.00;99420.41;5043985;28;20057;-59
2024/01/22 00:53:34;;;;;;;0.50;0.50;;;;;;;4.33;100.00;99399.97;5029236;28;20041;-59
2024/01/22 00:56:02;;;;;;;0.43;0.43;;;;;;;4.28;100.00;99407.72;5048519;28;20041;-59
2024/01/22 00:58:29;;;;;;;0.40;0.40;;;;;;;4.36;100.00;99390.00;5046929;28;20044;-59
2024/01/22 01:00:56;;;;;;;0.50;0.50;;;;;;;4.17;100.00;99378.25;5043415;28;20055;-59
2024/01/22 01:03:24;;;;;;;0.40;0.40;;;;;;;4.16;100.00;99371.34;5046649;28;20051;-59
2024/01/22 01:05:54;;;;;;;0.50;0.50;;;;;;;4.19;100.00;99362.97;5053593;28;20032;-59
2024/01/22 01:08:21;;;;;;;0.40;0.40;;;;;;;4.22;100.00;99351.97;5047611;28;20052;-59
2024/01/22 01:10:50;;;;;;;0.50;0.50;;;;;;;4.26;100.00;99358.50;5043220;28;20048;-59
2024/01/22 01:13:18;;;;;;;0.50;0.50;;;;;;;4.16;100.00;99360.72;5034660;28;20045;-59
2024/01/22 01:15:45;;;;;;;0.50;0.50;;;;;;;4.21;100.00;99350.34;5047330;28;20158;-59
2024/01/22 01:18:13;;;;;;;0.50;0.50;;;;;;;4.28;100.00;99344.03;5047465;28;20041;-59
2024/01/22 01:20:40;;;;;;;0.50;0.50;;;;;;;4.28;100.00;99333.41;5048614;28;20045;-59
2024/01/22 01:23:07;;;;;;;0.40;0.40;;;;;;;4.36;100.00;99324.47;5045373;28;20056;-59
2024/01/22 01:25:36;;;;;;;0.40;0.40;;;;;;;4.28;100.00;99316.69;5044521;28;20045;-59
2024/01/22 01:28:03;;;;;;;0.50;0.50;;;;;;;4.50;100.00;99310.22;5048455;28;20095;-59
2024/01/22 01:30:32;;;;;;;0.50;0.50;;;;;;;4.52;100.00;99302.06;5012173;28;20051;-59
2024/01/22 01:32:59;;;;;;;0.45;0.45;;;;;;;4.54;100.00;99307.97;5044830;28;20049;-59
2024/01/22 01:35:26;;;;;;;0.38;0.38;;;;;;;4.60;100.00;99301.06;5041033;28;20620;-59
2024/01/22 01:37:56;;;;;;;0.43;0.43;;;;;;;4.66;100.00;99302.88;5028137;28;20056;-59
2024/01/22 01:40:23;;;;;;;0.32;0.32;;;;;;;4.66;100.00;99302.88;5046355;28;20048;-59
2024/01/22 01:42:50;;;;;;;0.40;0.40;;;;;;;4.71;100.00;99287.97;5047548;28;20722;-59
2024/01/22 01:45:18;;;;;;;0.40;0.40;;;;;;;4.83;100.00;99266.97;5046672;28;20057;-59
2024/01/22 01:47:47;;;;;;;0.40;0.40;;;;;;;4.78;100.00;99273.91;5047839;28;20048;-59
2024/01/22 01:50:15;;;;;;;0.40;0.40;;;;;;;4.82;100.00;99273.31;5047269;28;20049;-59
2024/01/22 01:52:42;;;;;;;0.47;0.47;;;;;;;5.07;100.00;99272.69;5045131;28;20574;-59
2024/01/22 01:55:10;;;;;;;0.40;0.40;;;;;;;5.07;100.00;99289.44;5044188;28;20045;-59
2024/01/22 01:57:40;;;;;;;0.40;0.40;;;;;;;5.07;100.00;99291.28;5047344;28;20049;-59
2024/01/22 02:00:09;;;;;;;0.43;0.43;;;;;;;5.09;100.00;99265.31;5042593;28;20056;-58
2024/01/22 02:02:38;;;;;;;0.40;0.40;;;;;;;5.19;100.00;99273.66;5047180;28;20156;-59
2024/01/22 02:05:07;;;;;;;0.40;0.40;;;;;;;5.27;100.00;99262.03;5044430;28;20384;-59
2024/01/22 02:07:34;;;;;;;0.43;0.43;;;;;;;5.25;100.00;99248.13;5041705;28;20128;-59
2024/01/22 02:10:02;;;;;;;0.35;0.35;;;;;;;5.33;100.00;99235.44;5043354;28;20045;-59
2024/01/22 02:12:29;;;;;;;0.40;0.40;;;;;;;5.32;100.00;99255.06;5044307;28;20080;-59
2024/01/22 02:14:57;;;;;;;0.40;0.40;;;;;;;5.41;100.00;99269.75;5042580;28;20101;-59
2024/01/22 02:17:24;;;;;;;0.35;0.35;;;;;;;5.43;100.00;99268.75;5042194;28;20531;-59
2024/01/22 02:19:51;;;;;;;0.40;0.40;;;;;;;5.46;100.00;99260.34;5043849;28;20049;-59
2024/01/22 02:22:22;;;;;;;0.30;0.30;;;;;;;5.47;100.00;99262.00;5041859;28;20057;-59
2024/01/22 02:24:54;;;;;;;0.40;0.40;;;;;;;5.33;100.00;99269.97;5044527;28;20049;-59
2024/01/22 02:27:21;;;;;;;0.40;0.40;;;;;;;5.50;100.00;99272.22;5024056;28;20087;-59
2024/01/22 02:29:49;;;;;;;0.40;0.40;;;;;;;5.45;100.00;99258.72;5042711;28;20076;-59
2024/01/22 02:32:16;;;;;;;0.40;0.40;;;;;;;5.43;100.00;99244.81;5043235;28;20048;-59
2024/01/22 02:34:43;;;;;;;0.40;0.40;;;;;;;5.46;100.00;99255.03;5043363;28;20045;-59
2024/01/22 02:37:10;;;;;;;0.40;0.40;;;;;;;5.57;100.00;99252.56;5042976;28;20041;-59
2024/01/22 02:39:38;;;;;;;0.40;0.40;;;;;;;5.60;100.00;99246.00;5043653;28;20073;-59
2024/01/22 02:42:06;;;;;;;0.40;0.40;;;;;;;5.57;100.00;99241.09;5042772;28;20565;-59
2024/01/22 02:44:35;;;;;;;0.40;0.40;;;;;;;5.66;100.00;99233.69;5042253;28;20053;-59
2024/01/22 02:47:03;;;;;;;0.43;0.43;;;;;;;5.73;100.00;99214.03;5048982;28;20047;-58
2024/01/22 02:49:30;;;;;;;0.20;0.20;;;;;;;5.81;100.00;99220.94;5041776;28;20144;-59
2024/01/22 02:52:00;;;;;;;0.32;0.32;;;;;;;5.79;100.00;99207.88;5042868;28;20579;-60
2024/01/22 02:54:27;;;;;;;0.40;0.40;;;;;;;5.82;100.00;99196.00;5042054;28;20163;-59
2024/01/22 02:56:55;;;;;;;0.40;0.40;;;;;;;5.90;100.00;99181.63;5037826;28;20052;-59
2024/01/22 02:59:23;;;;;;;0.40;0.40;;;;;;;5.81;100.00;99186.38;5043175;28;20132;-59
2024/01/22 03:01:50;;;;;;;0.38;0.38;;;;;;;5.93;100.00;99160.72;5043655;28;20166;-59
2024/01/22 03:04:17;;;;;;;0.30;0.30;;;;;;;5.79;100.00;99144.06;5042157;28;20056;-58
2024/01/22 03:06:44;;;;;;;0.35;0.35;;;;;;;5.92;100.00;99158.31;5041676;28;20053;-59
2024/01/22 03:09:12;;;;;;;0.38;0.38;;;;;;;5.91;100.00;99177.94;5041795;28;20076;-59
2024/01/22 03:11:39;;;;;;;0.40;0.40;;;;;;;6.02;100.00;99169.31;5038414;28;20152;-59
2024/01/22 03:14:06;;;;;;;0.25;0.25;;;;;;;5.94;100.00;99185.53;5038938;28;20077;-59
2024/01/22 03:16:34;;;;;;;0.40;0.40;;;;;;;6.02;100.00;99174.66;5036882;28;20049;-59
2024/01/22 03:19:01;;;;;;;0.30;0.30;;;;;;;6.05;100.00;99171.56;5021384;28;20574;-59
2024/01/22 03:21:28;;;;;;;0.30;0.30;;;;;;;5.92;100.00;99171.59;5041324;28;20259;-59
2024/01/22 03:23:56;;;;;;;0.28;0.28;;;;;;;6.01;100.00;99151.72;5043766;28;20049;-59
2024/01/22 03:26:23;;;;;;;0.40;0.40;;;;;;;5.90;100.00;99139.06;5042089;28;20040;-59
2024/01/22 03:28:50;;;;;;;0.40;0.40;;;;;;;5.79;100.00;99138.72;5039280;28;20132;-59
2024/01/22 03:31:21;;;;;;;0.40;0.40;;;;;;;5.81;100.00;99122.53;5027250;28;20060;-59
2024/01/22 03:33:50;;;;;;;0.30;0.30;;;;;;;5.79;100.00;99109.47;5039897;28;20656;-59
2024/01/22 03:36:17;;;;;;;0.40;0.40;;;;;;;5.75;100.00;99112.78;5040719;28;20140;-58
2024/01/22 03:38:44;;;;;;;0.40;0.40;;;;;;;5.91;100.00;99108.78;5043270;28;20138;-59
2024/01/22 03:41:11;;;;;;;0.40;0.40;;;;;;;5.84;100.00;99096.34;5041980;28;20084;-59
2024/01/22 03:43:39;;;;;;;0.40;0.40;;;;;;;5.77;100.00;99081.47;5035871;28;20041;-58
2024/01/22 03:46:06;;;;;;;0.40;0.40;;;;;;;5.70;100.00;99112.59;5042289;28;20045;-59
2024/01/22 03:48:33;;;;;;;0.32;0.32;;;;;;;5.75;100.00;99105.59;5041084;28;20045;-59
2024/01/22 03:51:01;;;;;;;0.40;0.40;;;;;;;5.75;100.00;99088.84;5042672;28;20057;-59
2024/01/22 03:53:28;;;;;;;0.40;0.40;;;;;;;5.83;100.00;99070.75;5039912;28;20067;-59
2024/01/22 03:55:55;;;;;;;0.30;0.30;;;;;;;5.93;100.00;99093.41;5041125;28;20087;-59
2024/01/22 03:58:23;;;;;;;0.50;0.50;;;;;;;5.88;100.00;99093.25;5038178;28;20033;-59
2024/01/22 04:00:51;;;;;;;0.40;0.40;;;;;;;5.90;100.00;99092.00;5042710;28;20385;-59
2024/01/22 04:03:18;;;;;;;0.30;0.30;;;;;;;5.92;100.00;99100.59;5040399;28;20063;-59
2024/01/22 04:05:45;;;;;;;0.50;0.50;;;;;;;5.82;100.00;99089.63;5040763;28;20041;-59
2024/01/22 04:08:14;;;;;;;0.30;0.30;;;;;;;5.84;100.00;99088.38;5041332;28;20529;-59
2024/01/22 04:10:42;;;;;;;0.40;0.40;;;;;;;5.88;100.00;99061.34;5042443;28;20041;-59
2024/01/22 04:13:09;;;;;;;0.40;0.40;;;;;;;5.81;100.00;99083.44;5042470;28;20048;-59
2024/01/22 04:15:36;;;;;;;0.30;0.30;;;;;;;5.77;100.00;99062.84;5021495;28;20051;-59
2024/01/22 04:18:05;;;;;;;0.40;0.40;;;;;;;5.76;100.00;99051.38;5041580;28;20051;-59
2024/01/22 04:20:32;;;;;;;0.30;0.30;;;;;;;5.82;100.00;99066.47;5039226;28;20080;-59
2024/01/22 04:23:00;;;;;;;0.40;0.40;;;;;;;5.89;100.00;99063.78;5024731;28;20475;-59
2024/01/22 04:25:28;;;;;;;0.40;0.40;;;;;;;6.01;100.00;99093.19;5019986;28;20052;-59
2024/01/22 04:27:57;;;;;;;0.43;0.43;;;;;;;5.98;100.00;99093.63;5042297;28;20059;-59
2024/01/22 04:30:24;;;;;;;0.30;0.30;;;;;;;5.99;100.00;99081.94;5036513;28;20340;-59
2024/01/22 04:32:51;;;;;;;0.40;0.40;;;;;;;5.99;100.00;99092.56;5041426;28;20088;-59
2024/01/22 04:35:19;;;;;;;0.38;0.38;;;;;;;5.98;100.00;99094.44;5020685;28;20060;-59
2024/01/22 04:37:46;;;;;;;0.35;0.35;;;;;;;5.99;100.00;99073.94;5040794;28;20041;-59
2024/01/22 04:40:14;;;;;;;0.30;0.30;;;;;;;6.04;100.00;99077.63;5040024;28;20048;-59
2024/01/22 04:42:43;;;;;;;0.40;0.40;;;;;;;6.03;100.00;99069.84;5039102;28;20091;-59
2024/01/22 04:45:11;;;;;;;0.45;0.45;;;;;;;6.05;100.00;99052.63;5021402;28;20529;-59
2024/01/22 04:47:38;;;;;;;0.40;0.40;;;;;;;5.92;100.00;99012.00;5040312;28;20060;-59
2024/01/22 04:50:06;;;;;;;0.40;0.40;;;;;;;5.93;100.00;99010.94;5018049;28;20103;-59
2024/01/22 04:52:33;;;;;;;0.40;0.40;;;;;;;5.94;100.00;99007.28;5041795;28;20055;-59
2024/01/22 04:55:00;;;;;;;0.30;0.30;;;;;;;5.90;100.00;99006.88;5039356;28;20053;-59
2024/01/22 04:57:30;;;;;;;0.30;0.30;;;;;;;5.94;100.00;99010.78;5038679;28;20040;-59
2024/01/22 04:59:58;;;;;;;0.40;0.40;;;;;;;5.94;100.00;99008.13;5029946;28;20050;-59
2024/01/22 05:02:28;;;;;;;0.50;0.50;;;;;;;5.93;100.00;98982.50;5013785;28;20037;-59
2024/01/22 05:04:57;;;;;;;0.40;0.40;;;;;;;5.93;100.00;98979.84;5039488;28;20048;-59
2024/01/22 05:07:24;;;;;;;0.40;0.40;;;;;;;5.93;100.00;98969.19;5039287;28;20114;-59
2024/01/22 05:09:56;;;;;;;0.40;0.40;;;;;;;6.03;100.00;98979.38;5038970;28;20184;-59
2024/01/22 05:12:23;;;;;;;0.30;0.30;;;;;;;6.00;100.00;98966.53;5039590;28;20045;-59
2024/01/22 05:14:51;;;;;;;0.30;0.30;;;;;;;5.95;100.00;98977.00;5035452;28;20136;-59
2024/01/22 05:17:19;;;;;;;0.40;0.40;;;;;;;6.00;100.00;98975.31;5040830;28;20037;-59
2024/01/22 05:19:48;;;;;;;0.50;0.50;;;;;;;6.06;100.00;98968.28;5038084;28;20060;-59
2024/01/22 05:22:18;;;;;;;0.43;0.43;;;;;;;6.05;100.00;98987.97;5037242;28;20444;-59
2024/01/22 05:24:45;;;;;;;0.40;0.40;;;;;;;6.10;100.00;98977.47;5037463;28;20411;-59
2024/01/22 05:27:12;;;;;;;0.40;0.40;;;;;;;6.09;100.00;98969.69;5042158;28;20056;-59
2024/01/22 05:29:42;;;;;;;0.40;0.40;;;;;;;6.05;100.00;98956.03;5040461;28;20444;-59
2024/01/22 05:32:10;;;;;;;0.40;0.40;;;;;;;6.04;100.00;98952.56;5041429;28;20056;-59
2024/01/22 05:34:38;;;;;;;0.40;0.40;;;;;;;6.10;100.00;98944.72;5039134;28;20052;-59
2024/01/22 05:37:08;;;;;;;0.40;0.40;;;;;;;5.98;100.00;98926.00;5040722;28;20040;-59
2024/01/22 05:39:36;;;;;;;0.30;0.30;;;;;;;5.99;100.00;98922.31;5043490;28;20052;-59
2024/01/22 05:42:03;;;;;;;0.35;0.35;;;;;;;5.96;100.00;98907.59;5042851;28;20123;-59
2024/01/22 05:44:31;;;;;;;0.30;0.30;;;;;;;5.93;100.00;98893.91;5041510;28;20149;-59
2024/01/22 05:46:58;;;;;;;0.40;0.40;;;;;;;5.91;100.00;98906.63;5039766;28;20115;-58
2024/01/22 05:49:26;;;;;;;0.30;0.30;;;;;;;5.96;100.00;98873.03;5042837;28;20103;-58
2024/01/22 05:51:54;;;;;;;0.30;0.30;;;;;;;5.96;100.00;98878.34;5041811;28;20041;-58
2024/01/22 05:54:22;;;;;;;0.40;0.40;;;;;;;5.94;100.00;98863.63;5042410;28;20127;-59
2024/01/22 05:56:50;;;;;;;0.40;0.40;;;;;;;6.06;100.00;98867.19;5044821;28;20064;-59
2024/01/22 05:59:17;;;;;;;0.40;0.40;;;;;;;5.94;100.00;98864.47;5035533;28;20064;-59
2024/01/22 06:01:45;;;;;;;0.30;0.30;;;;;;;5.92;100.00;98866.50;5040403;28;20418;-59
2024/01/22 06:04:12;;;;;;;0.40;0.40;;;;;;;5.88;100.00;98877.81;5044268;28;20404;-59
2024/01/22 06:06:39;;;;;;;0.32;0.32;;;;;;;5.86;100.00;98872.69;5043989;28;20037;-59
2024/01/22 06:09:09;;;;;;;0.50;0.50;;;;;;;5.92;100.00;98879.00;5040530;28;20044;-59
2024/01/22 06:11:37;;;;;;;0.40;0.40;;;;;;;5.94;100.00;98879.59;5041594;28;20041;-59
2024/01/22 06:14:04;;;;;;;0.47;0.47;;;;;;;6.02;100.00;98895.28;5043991;28;20048;-58
2024/01/22 06:16:31;;;;;;;0.30;0.30;;;;;;;5.98;100.00;98880.78;5042947;28;20045;-59
2024/01/22 06:18:58;;;;;;;0.40;0.40;;;;;;;5.94;100.00;98890.25;5039845;28;20045;-58
2024/01/22 06:21:26;;;;;;;0.43;0.43;;;;;;;6.04;100.00;98886.06;5044072;28;20052;-58
2024/01/22 06:23:53;;;;;;;0.40;0.40;;;;;;;6.03;100.00;98899.56;5025831;28;20053;-58
2024/01/22 06:26:24;;;;;;;0.50;0.50;;;;;;;5.99;100.00;98893.03;5044611;28;20048;-59
2024/01/22 06:28:52;;;;;;;0.30;0.30;;;;;;;6.03;100.00;98878.28;5035495;28;20037;-59
2024/01/22 06:31:20;;;;;;;0.30;0.30;;;;;;;6.10;100.00;98883.53;5046712;28;20041;-59
2024/01/22 06:33:47;;;;;;;0.30;0.30;;;;;;;6.02;100.00;98892.63;5039850;28;20045;-59
2024/01/22 06:36:17;;;;;;;0.35;0.35;;;;;;;6.07;100.00;98884.78;5040452;28;20065;-59
2024/01/22 06:38:44;;;;;;;;;;;;;;;6.01;100.00;98886.47;5042674;28;20045;-59
2024/01/22 06:41:11;;;;;;;0.30;0.30;;;;;;;6.06;100.00;98907.09;5027316;28;19983;-59
2024/01/22 06:43:40;;;;;;;0.30;0.30;;;;;;;6.13;100.00;98910.50;5039614;28;20273;-58
2024/01/22 06:46:11;;;;;;;0.30;0.30;;;;;;;6.06;100.00;98909.75;5042373;28;20099;-58
2024/01/22 06:48:39;;;;;;;0.40;0.40;;;;;;;6.07;100.00;98906.09;5034222;28;20058;-59
2024/01/22 06:51:08;;;;;;;0.40;0.40;;;;;;;6.20;100.00;98905.13;5042289;28;20073;-58
2024/01/22 06:53:35;;;;;;;0.40;0.40;;;;;;;6.26;100.00;98905.06;5022683;28;20048;-58
2024/01/22 06:56:02;;;;;;;0.30;0.30;;;;;;;6.25;100.00;98916.72;5022827;28;20051;-59
2024/01/22 06:58:29;;;;;;;0.40;0.40;;;;;;;6.31;100.00;98917.66;5045959;28;20061;-59
2024/01/22 07:01:01;;;;;;;0.30;0.30;;;;;;;6.26;100.00;98910.38;5043885;28;20483;-59
2024/01/22 07:03:28;;;;;;;0.40;0.40;;;;;;;6.31;100.00;98916.88;5042352;28;20493;-59
2024/01/22 07:05:57;;;;;;;0.30;0.30;;;;;;;6.38;100.00;98917.59;5026579;28;20130;-59
2024/01/22 07:08:25;;;;;;;0.38;0.38;;;;;;;6.29;100.00;98925.09;5025705;28;20044;-59
2024/01/22 07:10:52;;;;;;;0.30;0.30;;;;;;;6.42;100.00;98929.44;5040639;28;20690;-58
2024/01/22 07:13:19;;;;;;;0.40;0.40;;;;;;;6.43;100.00;98947.84;5042517;28;20083;-58
2024/01/22 07:15:46;;;;;;;0.30;0.30;;;;;;;6.42;100.00;98956.06;5041853;28;20164;-59
2024/01/22 07:18:16;;;;;;;0.30;0.30;;;;;;;6.42;100.00;98961.41;5043043;28;20140;-59
2024/01/22 07:20:43;;;;;;;0.30;0.30;;;;;;;6.39;100.00;98962.66;5041090;28;20148;-59
2024/01/22 07:23:10;;;;;;;0.40;0.40;;;;;;;6.38;100.00;98970.84;5043407;28;20085;-59
2024/01/22 07:25:37;;;;;;;0.30;0.30;;;;;;;6.41;100.00;98955.22;5042198;28;20052;-59
2024/01/22 07:28:05;;;;;;;0.30;0.30;;;;;;;6.42;100.00;98967.53;5042046;28;20047;-59
2024/01/22 07:30:36;;;;;;;0.35;0.35;;;;;;;6.38;100.00;98962.88;5041531;28;20045;-59
2024/01/22 07:33:06;;;;;;;0.38;0.38;;;;;;;6.38;100.00;98954.88;5042293;28;20045;-59
2024/01/22 07:35:34;;;;;;;0.30;0.30;;;;;;;6.35;100.00;98950.81;5041476;28;20072;-59
2024/01/22 07:38:07;;;;;;;0.20;0.20;;;;;;;6.38;100.00;98934.38;5042403;28;20041;-59
2024/01/22 07:40:34;;;;;;;0.32;0.32;;;;;;;6.31;100.00;98951.47;5040383;28;20041;-59
2024/01/22 07:43:01;;;;;;;0.30;0.30;;;;;;;6.36;100.00;98946.28;5039003;28;20052;-59
2024/01/22 07:45:28;;;;;;;0.30;0.30;;;;;;;6.38;100.00;98942.38;5038439;28;20708;-59
2024/01/22 07:47:55;;;;;;;0.30;0.30;;;;;;;6.37;100.00;98937.28;5019673;28;20048;-59
2024/01/22 07:50:25;;;;;;;0.40;0.40;;;;;;;6.34;100.00;98938.53;5041377;28;20083;-59
2024/01/22 07:52:53;;;;;;;0.32;0.32;;;;;;;6.41;100.00;98933.94;5040572;28;20300;-59
2024/01/22 07:55:20;;;;;;;0.40;0.40;;;;;;;6.39;100.00;98929.88;5038475;28;20056;-59
2024/01/22 07:57:47;;;;;;;0.40;0.40;;;;;;;6.34;100.00;98922.56;5037992;28;20037;-58
2024/01/22 08:00:19;;;;;;;0.40;0.40;;;;;;;6.35;100.00;98934.03;5037182;28;20068;-59
2024/01/22 08:02:48;;;;;;;0.30;0.30;;;;;;;6.39;100.00;98929.88;5042404;28;20041;-59
2024/01/22 08:05:16;;;;;;;0.30;0.30;;;;;;;6.41;100.00;98925.13;5042273;28;20087;-59
2024/01/22 08:07:43;;;;;;;0.30;0.30;;;;;;;6.50;100.00;98915.81;5040452;28;20052;-59
2024/01/22 08:10:12;;;;;;;0.30;0.30;;;;;;;6.46;100.00;98904.00;5042330;28;20691;-59
2024/01/22 08:12:41;;;;;;;0.40;0.40;;;;;;;6.50;100.00;98910.50;5035702;28;20047;-59
2024/01/22 08:15:14;;;;;;;0.30;0.30;;;;;;;6.48;100.00;98896.59;5041111;28;20118;-59
2024/01/22 08:17:42;;;;;;;0.30;0.30;;;;;;;6.55;100.00;98897.31;5040900;28;20088;-59
2024/01/22 08:20:10;;;;;;;0.30;0.30;;;;;;;6.56;100.00;98909.59;5039638;28;20071;-59
2024/01/22 08:22:37;;;;;;;0.25;0.25;;;;;;;6.52;100.00;98934.25;5041422;28;20041;-59
2024/01/22 08:25:08;;;;;;;0.35;0.35;;;;;;;6.58;100.00;98918.19;5041215;28;20057;-59
2024/01/22 08:27:39;;;;;;;0.35;0.35;;;;;;;6.53;100.00;98931.34;5040071;28;20044;-59
2024/01/22 08:30:08;;;;;;;0.30;0.30;;;;;;;6.55;100.00;98929.28;5041072;28;20052;-58
2024/01/22 08:32:35;;;;;;;0.40;0.40;;;;;;;6.56;100.00;98941.53;5041555;28;20148;-59
2024/01/22 08:35:02;;;;;;;0.30;0.30;;;;;;;6.60;100.00;98944.59;5041294;28;20045;-59
2024/01/22 08:37:29;;;;;;;0.40;0.40;;;;;;;6.58;100.00;98949.31;5004615;28;20526;-58
2024/01/22 08:39:59;;;;;;;0.40;0.40;;;;;;;6.62;100.00;98942.53;5038373;28;20044;-59
2024/01/22 08:42:26;;;;;;;0.40;0.40;;;;;;;6.56;100.00;98957.53;5041496;28;20592;-59
2024/01/22 08:44:54;;;;;;;0.40;0.40;;;;;;;6.69;100.00;98957.38;5037253;28;20390;-59
2024/01/22 08:47:22;;;;;;;0.33;0.33;;;;;;;6.70;100.00;98942.22;5040307;28;20491;-59
2024/01/22 08:49:49;;;;;;;0.30;0.30;;;;;;;6.70;100.00;98942.22;5020649;28;20306;-59
2024/01/22 08:52:17;;;;;;;0.30;0.30;;;;;;;6.70;100.00;98947.53;5040740;28;20079;-58
2024/01/22 08:54:44;;;;;;;0.30;0.30;;;;;;;6.73;100.00;98962.25;5042050;28;20049;-58
2024/01/22 08:57:11;;;;;;;0.40;0.40;;;;;;;6.73;100.00;98951.59;5037750;28;20037;-58
2024/01/22 08:59:38;;;;;;;0.30;0.30;;;;;;;6.70;100.00;98953.69;5021484;28;20053;-59
2024/01/22 09:02:06;;;;;;;0.30;0.30;;;;;;;6.62;100.00;98953.19;5024475;28;20073;-59
2024/01/22 09:04:34;;;;;;;0.30;0.30;;;;;;;6.67;100.00;98964.78;5040566;28;20678;-59
2024/01/22 09:07:01;;;;;;;0.30;0.30;;;;;;;6.62;100.00;98953.19;4998358;28;20125;-59
2024/01/22 09:09:28;;;;;;;0.30;0.30;;;;;;;6.66;100.00;98960.50;5013916;28;20048;-59
2024/01/22 09:11:55;;;;;;;0.30;0.30;;;;;;;6.67;100.00;98954.13;5042781;28;20041;-59
2024/01/22 09:14:22;;;;;;;0.20;0.20;;;;;;;6.70;100.00;98959.00;5046298;28;20495;-59
2024/01/22 09:16:49;;;;;;;0.30;0.30;;;;;;;6.67;100.00;98940.81;5044637;28;20472;-59
2024/01/22 09:19:18;;;;;;;0.40;0.40;;;;;;;6.85;100.00;98939.16;5028001;28;20427;-59
2024/01/22 09:21:48;;;;;;;0.30;0.30;;;;;;;6.75;100.00;98931.69;5025676;28;20124;-59
2024/01/22 09:24:15;;;;;;;0.35;0.35;;;;;;;6.74;100.00;98931.91;5045642;28;20041;-59
2024/01/22 09:26:42;;;;;;;0.40;0.40;;;;;;;6.73;100.00;98924.97;5045590;28;20740;-59
2024/01/22 09:29:09;;;;;;;0.30;0.30;;;;;;;6.79;100.00;98927.56;5045170;28;20128;-58
2024/01/22 09:31:38;;;;;;;0.40;0.40;;;;;;;6.79;100.00;98924.91;5027562;28;20044;-59
2024/01/22 09:34:07;;;;;;;0.30;0.30;;;;;;;6.81;100.00;98928.13;5044633;28;20052;-59
2024/01/22 09:36:35;;;;;;;0.30;0.30;;;;;;;6.77;100.00;98921.63;5024023;28;20057;-59
2024/01/22 09:39:03;;;;;;;0.40;0.40;;;;;;;6.80;100.00;98931.03;5044938;28;20071;-59
2024/01/22 09:41:31;;;;;;;0.32;0.32;;;;;;;6.81;100.00;98927.31;5044660;28;20117;-59
2024/01/22 09:44:00;;;;;;;0.30;0.30;;;;;;;6.79;100.00;98929.38;5026671;28;20057;-58
2024/01/22 09:46:27;;;;;;;0.25;0.25;;;;;;;6.67;100.00;98938.16;5041393;28;20045;-58
2024/01/22 09:48:54;;;;;;;0.30;0.30;;;;;;;6.70;100.00;98931.56;5021036;28;20056;-59
2024/01/22 09:51:22;;;;;;;0.20;0.20;;;;;;;6.63;100.00;98928.97;5046058;28;20061;-59
2024/01/22 09:53:50;;;;;;;0.30;0.30;;;;;;;6.66;100.00;98930.38;5045100;28;20053;-59
2024/01/22 09:56:19;;;;;;;0.20;0.20;;;;;;;6.78;100.00;98922.44;5045694;28;20044;-59
2024/01/22 09:58:47;;;;;;;0.30;0.30;;;;;;;6.87;100.00;98916.56;5020890;28;20149;-59
2024/01/22 10:01:17;;;;;;;0.40;0.40;;;;;;;6.91;100.00;98912.44;5044340;28;20076;-59
2024/01/22 10:03:45;;;;;;;0.30;0.30;;;;;;;6.95;100.00;98912.78;5042806;28;20076;-60
2024/01/22 10:06:12;;;;;;;0.25;0.25;;;;;;;7.02;100.00;98924.16;5042856;28;20463;-59
2024/01/22 10:08:42;;;;;;;0.30;0.30;;;;;;;6.88;100.00;98925.38;5040718;28;20510;-59
2024/01/22 10:11:11;;;;;;;0.30;0.30;;;;;;;6.98;100.00;98927.50;5040955;28;20128;-59
2024/01/22 10:13:48;;;;;;;0.30;0.30;;;;;;;7.01;100.00;98919.84;5044820;28;20040;-59
2024/01/22 10:16:16;;;;;;;0.30;0.30;;;;;;;7.00;100.00;98915.56;5044569;28;20482;-59
2024/01/22 10:18:57;;;;;;;0.30;0.30;;;;;;;7.05;100.00;98902.38;5024188;28;20681;-59
2024/01/22 10:21:24;;;;;;;0.40;0.40;;;;;;;7.05;100.00;98902.38;5045291;28;20053;-59
2024/01/22 10:24:01;;;;;;;0.40;0.40;;;;;;;7.04;100.00;98895.44;5016289;28;20053;-59
2024/01/22 10:26:30;;;;;;;0.30;0.30;;;;;;;7.03;100.00;98901.00;5041827;28;20562;-59
2024/01/22 10:29:12;;;;;;;0.30;0.30;;;;;;;7.03;100.00;98888.47;5039349;28;20041;-59
2024/01/22 10:31:53;;;;;;;0.30;0.30;;;;;;;7.02;100.00;98889.53;5020448;28;20101;-60
2024/01/22 10:34:20;;;;;;;0.25;0.25;;;;;;;7.02;100.00;98886.84;5044380;28;20041;-59
2024/01/22 10:36:50;;;;;;;0.30;0.30;;;;;;;7.00;100.00;98888.94;5041738;28;20127;-59
2024/01/22 10:39:17;;;;;;;0.30;0.30;;;;;;;6.98;100.00;98885.69;5042546;28;20395;-60
2024/01/22 10:41:46;;;;;;;0.30;0.30;;;;;;;7.07;100.00;98883.50;5043110;28;20578;-59
2024/01/22 10:44:13;;;;;;;0.30;0.30;;;;;;;7.05;100.00;98885.59;5038156;28;20551;-59
2024/01/22 10:46:43;;;;;;;0.22;0.22;;;;;;;7.11;100.00;98880.19;5042424;28;20044;-60
2024/01/22 10:49:11;;;;;;;0.30;0.30;;;;;;;7.11;100.00;98869.50;5040162;28;20118;-60
2024/01/22 10:51:38;;;;;;;0.30;0.30;;;;;;;7.17;100.00;98861.63;5024258;28;20049;-59
2024/01/22 10:54:05;;;;;;;0.30;0.30;;;;;;;7.23;100.00;98855.38;5014582;28;20053;-60
2024/01/22 10:56:32;;;;;;;0.32;0.32;;;;;;;7.21;100.00;98857.47;5047550;28;20045;-60
2024/01/22 10:59:02;;;;;;;0.30;0.30;;;;;;;7.22;100.00;98851.09;5043935;28;20280;-60
2024/01/22 11:01:29;;;;;;;0.30;0.30;;;;;;;7.16;100.00;98846.66;5043072;28;20041;-60
2024/01/22 11:04:04;;;;;;;0.25;0.25;;;;;;;7.22;100.00;98840.44;5043761;28;20305;-60
2024/01/22 11:06:31;;;;;;;0.40;0.40;;;;;;;7.16;100.00;98834.16;5025348;28;20059;-60
2024/01/22 11:08:59;;;;;;;0.30;0.30;;;;;;;7.23;100.00;98832.19;5038858;28;20044;-60
2024/01/22 11:11:26;;;;;;;0.35;0.35;;;;;;;7.27;100.00;98819.25;5041018;28;20048;-60
2024/01/22 11:13:56;;;;;;;0.40;0.40;;;;;;;7.21;100.00;98825.47;5039194;28;20056;-60
2024/01/22 11:16:27;;;;;;;0.30;0.30;;;;;;;7.30;100.00;98814.25;5043176;28;20049;-59
2024/01/22 11:19:00;;;;;;;0.30;0.30;;;;;;;7.29;100.00;98807.31;5007964;28;20048;-59
2024/01/22 11:21:32;;;;;;;0.40;0.40;;;;;;;7.35;100.00;98805.56;5041924;28;20127;-60
2024/01/22 11:24:06;;;;;;;0.30;0.30;;;;;;;7.37;100.00;98814.13;5040817;28;20041;-60
2024/01/22 11:26:34;;;;;;;0.30;0.30;;;;;;;7.34;100.00;98809.28;5023003;28;20041;-60
2024/01/22 11:29:08;;;;;;;0.30;0.30;;;;;;;7.44;100.00;98798.84;5041169;28;20048;-61
2024/01/22 11:31:37;;;;;;;0.30;0.30;;;;;;;7.41;100.00;98790.47;5043422;28;20049;-60
2024/01/22 11:34:05;;;;;;;0.30;0.30;;;;;;;7.40;100.00;98796.88;5043475;28;20070;-60
2024/01/22 11:36:53;;;;;;;0.30;0.30;;;;;;;7.42;100.00;98784.94;5037471;28;20045;-60
2024/01/22 11:39:42;;;;;;;0.30;0.30;;;;;;;7.52;100.00;98779.81;5043059;28;20507;-60